Time;durP1;ratioP1;P1;durP2;ratioP2;P2;SDS_P1;SDS_P2;PMS_P1;PMS_P2;Temp;Humidity;BMP_temperature;BMP_pressure;BME280_temperature;BME280_humidity;BME280_pressure;Samples;Min_cycle;Max_cycle;Signal;HPM_P1;HPM_P2
2021/10/21 00:01:58;;;;;;;7.82;3.47;;;13.90;99.90;;;;;;5128305;27;20023;-76
2021/10/21 00:04:25;;;;;;;7.85;3.30;;;13.90;99.90;;;;;;5072940;27;20511;-76
2021/10/21 00:06:54;;;;;;;11.90;4.15;;;13.90;99.90;;;;;;5095792;27;20047;-75
2021/10/21 00:09:20;;;;;;;6.80;3.85;;;13.90;99.90;;;;;;5088176;27;20525;-75
2021/10/21 00:11:47;;;;;;;9.57;4.13;;;13.90;99.90;;;;;;5075674;27;20035;-75
2021/10/21 00:14:13;;;;;;;21.00;7.22;;;14.00;99.90;;;;;;5125393;27;20034;-75
2021/10/21 00:16:40;;;;;;;13.02;6.32;;;13.90;99.90;;;;;;5097047;27;20526;-75
2021/10/21 00:19:06;;;;;;;13.93;5.22;;;14.00;99.90;;;;;;5114281;27;20042;-75
2021/10/21 00:21:33;;;;;;;14.73;7.05;;;14.00;99.90;;;;;;5110823;27;20032;-75
2021/10/21 00:23:59;;;;;;;17.83;7.68;;;14.00;99.90;;;;;;5121628;27;20038;-75
2021/10/21 00:26:26;;;;;;;12.93;6.57;;;14.10;99.90;;;;;;5119850;27;20051;-75
2021/10/21 00:28:52;;;;;;;11.73;5.78;;;14.10;99.90;;;;;;5105895;27;20035;-75
2021/10/21 00:31:19;;;;;;;9.55;5.35;;;14.10;99.90;;;;;;5123465;27;20031;-75
2021/10/21 00:33:46;;;;;;;10.57;4.70;;;14.10;99.90;;;;;;5107558;27;20042;-76
2021/10/21 00:36:14;;;;;;;9.93;3.13;;;14.00;99.90;;;;;;5110591;27;20053;-76
2021/10/21 00:38:40;;;;;;;6.82;3.38;;;14.00;99.90;;;;;;5106416;27;20047;-75
2021/10/21 00:41:06;;;;;;;7.82;3.65;;;14.00;99.90;;;;;;5096815;27;20039;-75
2021/10/21 00:43:37;;;;;;;8.23;3.75;;;14.00;99.90;;;;;;5107240;27;20035;-75
2021/10/21 00:46:09;;;;;;;6.72;3.65;;;14.10;99.90;;;;;;5125284;27;20512;-76
2021/10/21 00:48:36;;;;;;;10.07;3.80;;;14.10;99.90;;;;;;5107626;27;20483;-76
2021/10/21 00:51:07;;;;;;;10.77;4.53;;;14.10;99.90;;;;;;5123070;27;20027;-76
2021/10/21 00:53:35;;;;;;;10.50;5.50;;;14.10;99.90;;;;;;5108701;27;20035;-75
2021/10/21 00:56:06;;;;;;;12.82;5.00;;;14.10;99.90;;;;;;5075855;27;20598;-76
2021/10/21 00:58:33;;;;;;;7.85;4.45;;;14.10;99.90;;;;;;5092301;27;20035;-76
2021/10/21 01:01:00;;;;;;;11.68;5.50;;;14.10;99.90;;;;;;5109824;27;20476;-76
2021/10/21 01:03:28;;;;;;;8.07;5.00;;;14.10;99.90;;;;;;5112543;27;20112;-76
2021/10/21 01:05:55;;;;;;;10.27;5.78;;;14.10;99.90;;;;;;5091955;27;20408;-76
2021/10/21 01:08:21;;;;;;;9.57;5.90;;;14.10;99.90;;;;;;5119741;27;20027;-76
2021/10/21 01:10:49;;;;;;;7.70;4.70;;;14.00;99.90;;;;;;5119604;27;20503;-76
2021/10/21 01:13:16;;;;;;;7.70;4.60;;;14.00;99.90;;;;;;5118148;27;20031;-76
2021/10/21 01:15:42;;;;;;;8.57;4.47;;;14.00;99.90;;;;;;5116361;27;20032;-76
2021/10/21 01:18:09;;;;;;;7.35;4.25;;;14.00;99.90;;;;;;5109040;27;20046;-76
2021/10/21 01:20:35;;;;;;;9.40;3.60;;;14.00;99.90;;;;;;5118361;27;20392;-76
2021/10/21 01:23:02;;;;;;;8.50;2.60;;;13.90;99.90;;;;;;5107069;27;20047;-76
2021/10/21 01:25:28;;;;;;;5.63;1.80;;;13.90;99.90;;;;;;5118243;27;20387;-76
2021/10/21 01:27:55;;;;;;;2.72;1.30;;;13.80;99.90;;;;;;5104245;27;20812;-76
2021/10/21 01:30:25;;;;;;;7.03;1.50;;;13.60;99.90;;;;;;5118267;27;20450;-76
2021/10/21 01:32:54;;;;;;;4.20;0.90;;;13.50;99.90;;;;;;5105327;27;20023;-76
2021/10/21 01:35:20;;;;;;;3.92;1.23;;;13.40;99.90;;;;;;5107619;27;20488;-76
2021/10/21 01:37:47;;;;;;;2.92;1.00;;;13.40;99.90;;;;;;5092314;27;20050;-74
2021/10/21 01:40:17;;;;;;;5.30;1.00;;;13.30;99.90;;;;;;5107178;27;20019;-74
2021/10/21 01:42:44;;;;;;;6.85;0.98;;;13.20;99.90;;;;;;5090312;27;20027;-74
2021/10/21 01:45:30;;;;;;;4.32;0.88;;;13.10;99.90;;;;;;5107604;27;20373;-75
2021/10/21 01:47:59;;;;;;;2.88;0.70;;;13.00;99.90;;;;;;5122607;27;20388;-75
2021/10/21 01:50:27;;;;;;;2.22;0.60;;;13.00;99.90;;;;;;5109650;27;20030;-76
2021/10/21 01:52:53;;;;;;;4.53;1.10;;;13.00;99.90;;;;;;5107719;27;20023;-76
2021/10/21 01:55:20;;;;;;;2.63;0.60;;;12.90;99.90;;;;;;5076713;27;20038;-76
2021/10/21 01:57:47;;;;;;;3.13;0.40;;;12.90;99.90;;;;;;5105251;27;20020;-76
2021/10/21 02:00:16;;;;;;;1.23;0.20;;;12.80;99.90;;;;;;5092500;27;20030;-76
2021/10/21 02:02:44;;;;;;;1.77;0.30;;;12.60;99.90;;;;;;5107763;27;20032;-76
2021/10/21 02:05:16;;;;;;;2.05;0.40;;;12.50;99.90;;;;;;5108707;27;20056;-76
2021/10/21 02:07:44;;;;;;;4.28;0.20;;;12.30;99.90;;;;;;5124869;27;20031;-76
2021/10/21 02:10:12;;;;;;;2.25;0.30;;;12.20;99.90;;;;;;5072113;27;20034;-76
2021/10/21 02:12:39;;;;;;;4.70;0.40;;;12.10;99.90;;;;;;5105321;27;20032;-76
2021/10/21 02:15:06;;;;;;;2.10;0.43;;;12.10;99.90;;;;;;5090039;28;20027;-76
2021/10/21 02:17:33;;;;;;;3.53;0.40;;;12.00;99.90;;;;;;5093621;27;20026;-76
2021/10/21 02:19:59;;;;;;;4.65;0.40;;;11.90;99.90;;;;;;5127455;27;20529;-76
2021/10/21 02:22:26;;;;;;;3.33;0.50;;;11.90;99.90;;;;;;5103977;27;20039;-76
2021/10/21 02:24:53;;;;;;;4.78;0.50;;;11.90;99.90;;;;;;5124180;27;20483;-76
2021/10/21 02:27:19;;;;;;;4.72;0.65;;;11.80;99.90;;;;;;5121227;27;20031;-76
2021/10/21 02:29:46;;;;;;;4.30;0.60;;;11.80;99.90;;;;;;5102874;27;20037;-76
2021/10/21 02:32:12;;;;;;;2.88;0.50;;;11.70;99.90;;;;;;5085716;28;20058;-76
2021/10/21 02:34:38;;;;;;;4.38;0.40;;;11.70;99.90;;;;;;5123562;27;20043;-76
2021/10/21 02:37:05;;;;;;;4.55;0.40;;;11.60;99.90;;;;;;5087011;27;20472;-76
2021/10/21 02:39:32;;;;;;;5.43;0.40;;;11.60;99.90;;;;;;5104384;27;20044;-76
2021/10/21 02:41:58;;;;;;;5.25;0.40;;;11.60;99.90;;;;;;5071245;27;20050;-76
2021/10/21 02:44:25;;;;;;;2.85;0.30;;;11.60;99.90;;;;;;5120099;27;20515;-76
2021/10/21 02:46:51;;;;;;;4.45;0.30;;;11.60;99.90;;;;;;5105647;28;20479;-76
2021/10/21 02:49:18;;;;;;;4.85;0.60;;;11.60;99.90;;;;;;5074020;27;20032;-76
2021/10/21 02:51:45;;;;;;;5.78;0.57;;;11.60;99.90;;;;;;5120463;27;20495;-76
2021/10/21 02:54:11;;;;;;;4.85;0.30;;;11.60;99.90;;;;;;5090319;27;20388;-76
2021/10/21 02:56:38;;;;;;;1.92;0.30;;;11.60;99.90;;;;;;5067486;27;20042;-76
2021/10/21 02:59:04;;;;;;;6.72;0.30;;;11.60;99.90;;;;;;5110782;27;20035;-77
2021/10/21 03:01:30;;;;;;;3.00;0.40;;;11.60;99.90;;;;;;5122269;27;20030;-76
2021/10/21 03:03:58;;;;;;;2.35;0.20;;;11.60;99.90;;;;;;5092656;27;20036;-76
2021/10/21 03:06:24;;;;;;;6.18;0.82;;;11.60;99.90;;;;;;5117353;27;20050;-75
2021/10/21 03:08:51;;;;;;;7.53;0.50;;;11.60;99.90;;;;;;5116763;27;20400;-75
2021/10/21 03:11:17;;;;;;;5.93;0.50;;;11.60;99.90;;;;;;5080555;27;20071;-75
2021/10/21 03:13:44;;;;;;;3.13;0.35;;;11.60;99.90;;;;;;5103361;27;20475;-75
2021/10/21 03:16:10;;;;;;;5.35;0.30;;;11.60;99.90;;;;;;5119911;27;20385;-75
2021/10/21 03:18:36;;;;;;;2.60;0.40;;;11.60;99.90;;;;;;5092514;27;20046;-75
2021/10/21 03:21:03;;;;;;;4.72;0.52;;;11.70;99.90;;;;;;5118797;27;20370;-75
2021/10/21 03:23:29;;;;;;;3.95;0.30;;;11.70;99.90;;;;;;5123246;27;20031;-75
2021/10/21 03:25:56;;;;;;;3.67;0.32;;;11.70;99.90;;;;;;5123936;27;20053;-75
2021/10/21 03:28:22;;;;;;;2.85;0.30;;;11.70;99.90;;;;;;5109177;27;20024;-75
2021/10/21 03:30:49;;;;;;;3.38;0.52;;;11.70;99.90;;;;;;5105820;27;20058;-75
2021/10/21 03:33:15;;;;;;;3.72;0.30;;;11.70;99.90;;;;;;5112885;27;20391;-75
2021/10/21 03:35:42;;;;;;;3.83;0.30;;;11.70;99.90;;;;;;5124839;27;20035;-76
2021/10/21 03:38:08;;;;;;;4.60;0.30;;;11.70;99.90;;;;;;5127905;27;20026;-75
2021/10/21 03:40:35;;;;;;;1.85;0.30;;;11.70;99.90;;;;;;5111997;27;20050;-75
2021/10/21 03:43:01;;;;;;;7.93;0.40;;;11.70;99.90;;;;;;5125204;27;20027;-75
2021/10/21 03:45:28;;;;;;;3.42;0.45;;;11.70;99.90;;;;;;5109813;27;20042;-75
2021/10/21 03:47:54;;;;;;;3.47;0.50;;;11.70;99.90;;;;;;5096642;27;20041;-75
2021/10/21 03:50:21;;;;;;;6.00;0.50;;;11.70;99.90;;;;;;5110988;27;20035;-75
2021/10/21 03:52:47;;;;;;;4.22;0.43;;;11.70;99.90;;;;;;5106356;27;20036;-75
2021/10/21 03:55:14;;;;;;;4.15;0.32;;;11.70;99.90;;;;;;5097087;27;20407;-75
2021/10/21 03:57:40;;;;;;;6.45;0.60;;;11.70;99.90;;;;;;5124775;27;21128;-75
2021/10/21 04:00:08;;;;;;;7.82;0.52;;;11.70;99.90;;;;;;5107468;27;20039;-75
2021/10/21 04:02:39;;;;;;;6.28;0.32;;;11.70;99.90;;;;;;5117620;27;20043;-75
2021/10/21 04:05:06;;;;;;;5.03;0.40;;;11.70;99.90;;;;;;5127142;27;20034;-75
2021/10/21 04:07:34;;;;;;;4.20;0.40;;;11.70;99.90;;;;;;5124854;27;21386;-75
2021/10/21 04:10:02;;;;;;;6.88;0.35;;;11.70;99.90;;;;;;5123480;27;20049;-75
2021/10/21 04:12:30;;;;;;;7.50;0.57;;;11.70;99.90;;;;;;5128473;27;20031;-75
2021/10/21 04:14:58;;;;;;;3.70;0.63;;;11.70;99.90;;;;;;5109996;27;20042;-75
2021/10/21 04:17:24;;;;;;;3.03;0.30;;;11.70;99.90;;;;;;5108960;27;20031;-75
2021/10/21 04:19:51;;;;;;;4.10;0.40;;;11.70;99.90;;;;;;5075036;27;20046;-75
2021/10/21 04:22:17;;;;;;;3.10;0.40;;;11.70;99.90;;;;;;5095659;27;20044;-75
2021/10/21 04:24:43;;;;;;;4.82;0.75;;;11.70;99.90;;;;;;5107277;27;20063;-75
2021/10/21 04:27:10;;;;;;;7.15;0.40;;;11.70;99.90;;;;;;5098253;27;20043;-75
2021/10/21 04:29:36;;;;;;;2.53;0.30;;;11.70;99.90;;;;;;5110699;27;20400;-75
2021/10/21 04:32:03;;;;;;;5.88;0.40;;;11.70;99.90;;;;;;5128521;27;20387;-74
2021/10/21 04:34:30;;;;;;;3.90;0.40;;;11.70;99.90;;;;;;5130236;27;20034;-75
2021/10/21 04:36:56;;;;;;;2.58;0.30;;;11.70;99.90;;;;;;5111087;27;20042;-75
2021/10/21 04:39:23;;;;;;;8.15;0.77;;;11.70;99.90;;;;;;5110865;27;20037;-75
2021/10/21 04:41:49;;;;;;;5.22;0.40;;;11.70;99.90;;;;;;5094966;27;20051;-73
2021/10/21 04:44:16;;;;;;;4.68;0.40;;;11.70;99.90;;;;;;5110106;27;20035;-73
2021/10/21 04:46:42;;;;;;;3.88;0.50;;;11.60;99.90;;;;;;5108731;27;20036;-73
2021/10/21 04:49:08;;;;;;;5.68;0.60;;;11.60;99.90;;;;;;5113066;27;20386;-73
2021/10/21 04:51:35;;;;;;;3.00;0.40;;;11.60;99.90;;;;;;5111818;27;20050;-73
2021/10/21 04:54:01;;;;;;;2.42;0.40;;;11.60;99.90;;;;;;5111939;27;20035;-73
2021/10/21 04:56:28;;;;;;;5.10;0.55;;;11.60;99.90;;;;;;5114061;27;20065;-73
2021/10/21 04:58:54;;;;;;;6.13;0.40;;;11.60;99.90;;;;;;5093250;27;20051;-73
2021/10/21 05:01:21;;;;;;;4.53;0.50;;;11.60;99.90;;;;;;5126092;27;20032;-73
2021/10/21 05:03:48;;;;;;;3.63;0.60;;;11.60;99.90;;;;;;5093636;27;20049;-73
2021/10/21 05:06:15;;;;;;;3.97;0.40;;;11.60;99.90;;;;;;5113834;27;20054;-74
2021/10/21 05:08:42;;;;;;;5.78;0.50;;;11.70;99.90;;;;;;5127604;27;20039;-73
2021/10/21 05:11:08;;;;;;;2.35;0.38;;;11.70;99.90;;;;;;5110647;27;20035;-73
2021/10/21 05:13:35;;;;;;;1.88;0.30;;;11.70;99.90;;;;;;5089951;27;20044;-74
2021/10/21 05:16:01;;;;;;;2.65;0.50;;;11.70;99.90;;;;;;5094631;27;20780;-73
2021/10/21 05:18:27;;;;;;;5.05;0.40;;;11.70;99.90;;;;;;5076490;27;20039;-73
2021/10/21 05:20:54;;;;;;;5.30;0.50;;;11.70;99.90;;;;;;5108302;27;20050;-73
2021/10/21 05:23:20;;;;;;;3.60;0.60;;;11.70;99.90;;;;;;5128783;27;20047;-73
2021/10/21 05:25:47;;;;;;;8.07;0.70;;;11.70;99.90;;;;;;5120893;27;20042;-73
2021/10/21 05:28:13;;;;;;;2.58;0.35;;;11.70;99.90;;;;;;5130307;27;20036;-73
2021/10/21 05:30:40;;;;;;;5.20;0.60;;;11.70;99.90;;;;;;5109398;27;20042;-73
2021/10/21 05:33:07;;;;;;;4.50;0.60;;;11.70;99.90;;;;;;5112457;27;20026;-73
2021/10/21 05:35:33;;;;;;;2.95;0.32;;;11.70;99.90;;;;;;5096834;27;20042;-73
2021/10/21 05:38:00;;;;;;;2.28;0.40;;;11.70;99.90;;;;;;5126143;27;20043;-74
2021/10/21 05:40:27;;;;;;;4.65;0.55;;;11.70;99.90;;;;;;5090784;27;20031;-75
2021/10/21 05:42:53;;;;;;;5.38;0.85;;;11.70;99.90;;;;;;5126097;27;20477;-75
2021/10/21 05:45:20;;;;;;;9.15;1.52;;;11.70;99.90;;;;;;5105906;27;20040;-75
2021/10/21 05:47:47;;;;;;;4.68;1.15;;;11.70;99.90;;;;;;5109529;27;20031;-72
2021/10/21 05:50:14;;;;;;;3.85;0.80;;;11.70;99.90;;;;;;5114695;27;20034;-75
2021/10/21 05:52:41;;;;;;;2.88;0.60;;;11.60;99.90;;;;;;5108066;27;20034;-74
2021/10/21 05:55:08;;;;;;;2.45;0.93;;;11.40;99.90;;;;;;5109088;27;20038;-74
2021/10/21 05:57:34;;;;;;;2.65;0.60;;;11.20;99.90;;;;;;5107617;27;20058;-75
2021/10/21 06:00:01;;;;;;;1.92;0.35;;;11.10;99.90;;;;;;5122521;27;20035;-74
2021/10/21 06:02:38;;;;;;;4.13;0.55;;;11.00;99.90;;;;;;5104644;27;20039;-74
2021/10/21 06:05:06;;;;;;;2.00;0.20;;;10.90;99.90;;;;;;5109302;27;20459;-75
2021/10/21 06:07:33;;;;;;;2.08;0.30;;;10.80;99.90;;;;;;5092918;27;20043;-75
2021/10/21 06:09:59;;;;;;;0.50;0.13;;;10.70;99.90;;;;;;5125093;27;20034;-74
2021/10/21 06:12:26;;;;;;;1.48;0.30;;;10.60;99.90;;;;;;5080555;27;20043;-74
2021/10/21 06:14:52;;;;;;;1.33;0.40;;;10.50;99.90;;;;;;5126841;27;20031;-74
2021/10/21 06:17:19;;;;;;;3.13;0.45;;;10.50;99.90;;;;;;5127639;27;20376;-74
2021/10/21 06:19:45;;;;;;;2.55;0.30;;;10.40;99.90;;;;;;5123074;27;20034;-73
2021/10/21 06:22:14;;;;;;;2.75;0.20;;;10.40;99.90;;;;;;5110582;27;20482;-74
2021/10/21 06:24:40;;;;;;;2.92;0.20;;;10.30;99.90;;;;;;5093003;27;20039;-74
2021/10/21 06:27:06;;;;;;;2.05;0.20;;;10.30;99.90;;;;;;5111973;27;20039;-74
2021/10/21 06:29:33;;;;;;;4.10;0.30;;;10.30;99.90;;;;;;5109885;28;20046;-74
2021/10/21 06:32:00;;;;;;;2.38;0.30;;;10.30;99.90;;;;;;5106049;27;20042;-75
2021/10/21 06:34:27;;;;;;;1.58;0.38;;;10.30;99.90;;;;;;5102184;27;20061;-74
2021/10/21 06:36:53;;;;;;;3.08;0.60;;;10.30;99.90;;;;;;5104756;27;20502;-73
2021/10/21 06:39:20;;;;;;;3.60;0.35;;;10.30;99.90;;;;;;5087370;27;20035;-74
2021/10/21 06:41:46;;;;;;;4.88;0.45;;;10.30;99.90;;;;;;5116381;27;20054;-74
2021/10/21 06:44:15;;;;;;;4.75;0.40;;;10.30;99.90;;;;;;5088690;27;20040;-74
2021/10/21 06:46:42;;;;;;;6.28;0.35;;;10.30;99.90;;;;;;5107155;27;20039;-74
2021/10/21 06:49:08;;;;;;;5.38;0.43;;;10.30;99.90;;;;;;5107903;27;20039;-74
2021/10/21 06:51:35;;;;;;;6.07;0.52;;;10.30;99.90;;;;;;5118778;27;20518;-74
2021/10/21 06:54:01;;;;;;;2.70;0.50;;;10.30;99.90;;;;;;5089297;27;20031;-74
2021/10/21 06:56:28;;;;;;;4.00;0.30;;;10.30;99.90;;;;;;5089911;27;20031;-74
2021/10/21 06:58:54;;;;;;;6.00;0.38;;;10.30;99.90;;;;;;5109738;27;20053;-74
2021/10/21 07:01:20;;;;;;;4.25;0.22;;;10.40;99.90;;;;;;5121040;27;20040;-75
2021/10/21 07:03:47;;;;;;;6.85;0.50;;;10.40;99.90;;;;;;5086981;27;20032;-74
2021/10/21 07:06:13;;;;;;;3.88;0.60;;;10.40;99.90;;;;;;5106520;27;20519;-74
2021/10/21 07:08:39;;;;;;;5.00;0.88;;;10.40;99.90;;;;;;5119560;27;20038;-74
2021/10/21 07:11:06;;;;;;;5.85;0.40;;;10.50;99.90;;;;;;5102770;27;20031;-74
2021/10/21 07:13:33;;;;;;;7.38;0.50;;;10.50;99.90;;;;;;5112666;27;20039;-74
2021/10/21 07:15:59;;;;;;;6.13;0.40;;;10.50;99.90;;;;;;5104564;27;20023;-74
2021/10/21 07:18:25;;;;;;;7.97;0.60;;;10.60;99.90;;;;;;5102702;27;20043;-74
2021/10/21 07:20:52;;;;;;;10.15;0.88;;;10.60;99.90;;;;;;5102361;27;20476;-76
2021/10/21 07:23:18;;;;;;;5.25;0.40;;;10.60;99.90;;;;;;5113877;27;20348;-75
2021/10/21 07:25:45;;;;;;;12.95;0.65;;;10.60;99.90;;;;;;5102882;27;20027;-75
2021/10/21 07:28:11;;;;;;;8.88;0.52;;;10.60;99.90;;;;;;5127386;27;21059;-74
2021/10/21 07:30:38;;;;;;;9.98;0.88;;;10.60;99.90;;;;;;5106886;27;20125;-74
2021/10/21 07:33:04;;;;;;;9.50;0.90;;;10.70;99.90;;;;;;5094830;27;20423;-74
2021/10/21 07:35:31;;;;;;;4.00;0.75;;;10.70;99.90;;;;;;5120368;27;20038;-74
2021/10/21 07:38:00;;;;;;;8.35;0.70;;;10.80;99.90;;;;;;5104873;27;20368;-73
2021/10/21 07:40:27;;;;;;;6.30;0.52;;;10.80;99.90;;;;;;5107798;28;20046;-74
2021/10/21 07:42:56;;;;;;;12.65;0.80;;;10.80;99.90;;;;;;5091396;27;20031;-74
2021/10/21 07:45:22;;;;;;;12.90;0.57;;;10.90;99.90;;;;;;5091175;27;20039;-74
2021/10/21 07:47:49;;;;;;;9.98;1.08;;;10.80;99.90;;;;;;5119720;27;20038;-74
2021/10/21 07:50:17;;;;;;;15.50;0.90;;;10.80;99.90;;;;;;5117685;27;20035;-75
2021/10/21 07:52:46;;;;;;;11.27;0.80;;;10.80;99.90;;;;;;5123365;27;20046;-75
2021/10/21 07:55:13;;;;;;;12.80;1.20;;;10.80;99.90;;;;;;5122225;27;20407;-76
2021/10/21 07:57:40;;;;;;;15.82;1.25;;;10.80;99.90;;;;;;5094537;27;20496;-78
2021/10/21 08:00:11;;;;;;;13.38;0.98;;;10.90;99.90;;;;;;5076052;27;20046;-74
2021/10/21 08:02:43;;;;;;;10.90;0.90;;;10.80;99.90;;;;;;5093596;27;20030;-75
2021/10/21 08:05:10;;;;;;;14.60;1.88;;;10.80;99.90;;;;;;5123312;27;20487;-76
2021/10/21 08:07:46;;;;;;;12.20;1.40;;;10.70;99.90;;;;;;5109131;27;20587;-79
2021/10/21 08:10:14;;;;;;;10.18;1.05;;;10.70;99.90;;;;;;5120638;27;20024;-76
2021/10/21 08:12:41;;;;;;;13.02;1.13;;;10.70;99.90;;;;;;5108668;27;20042;-76
2021/10/21 08:15:09;;;;;;;15.43;1.10;;;10.70;99.90;;;;;;5111378;27;20038;-77
2021/10/21 08:17:37;;;;;;;16.90;1.70;;;10.70;99.90;;;;;;5109611;27;20035;-77
2021/10/21 08:20:05;;;;;;;16.55;1.15;;;10.80;99.90;;;;;;5108427;27;20035;-75
2021/10/21 08:22:32;;;;;;;9.38;0.80;;;10.90;99.90;;;;;;5122859;27;20049;-75
2021/10/21 08:24:59;;;;;;;16.48;1.05;;;10.90;99.90;;;;;;5106439;27;20039;-75
2021/10/21 08:27:26;;;;;;;13.98;1.00;;;10.90;99.90;;;;;;5108959;27;20031;-75
2021/10/21 08:29:52;;;;;;;11.30;0.98;;;10.80;99.90;;;;;;5110660;27;20495;-76
2021/10/21 08:32:19;;;;;;;10.38;0.98;;;10.70;99.90;;;;;;5089887;27;20027;-76
2021/10/21 08:34:45;;;;;;;12.70;1.00;;;10.70;99.90;;;;;;5091236;27;20055;-76
2021/10/21 08:37:12;;;;;;;14.45;1.00;;;10.60;99.90;;;;;;5110508;27;20043;-74
2021/10/21 08:39:38;;;;;;;10.48;0.88;;;10.50;99.90;;;;;;5119513;27;20047;-75
2021/10/21 08:42:06;;;;;;;10.30;1.02;;;10.60;99.90;;;;;;5108580;27;20035;-77
2021/10/21 08:44:37;;;;;;;9.02;1.23;;;10.50;99.90;;;;;;5094975;27;20062;-76
2021/10/21 08:47:05;;;;;;;14.68;0.90;;;10.60;99.90;;;;;;5120162;27;20039;-76
2021/10/21 08:49:32;;;;;;;10.90;0.82;;;10.60;99.90;;;;;;5114116;27;20031;-76
2021/10/21 08:51:59;;;;;;;14.02;1.60;;;10.60;99.90;;;;;;5112153;27;20035;-75
2021/10/21 08:54:26;;;;;;;7.22;0.82;;;10.70;99.90;;;;;;5107894;27;20034;-75
2021/10/21 08:56:52;;;;;;;10.38;0.75;;;10.70;99.90;;;;;;5107478;27;20039;-73
2021/10/21 08:59:20;;;;;;;12.48;0.90;;;10.80;99.90;;;;;;5106047;27;20035;-75
2021/10/21 09:01:50;;;;;;;11.43;1.42;;;11.00;99.90;;;;;;5120695;27;20034;-75
2021/10/21 09:07:56;;;;;;;20.05;2.08;;;11.30;99.90;;;;;;5119637;27;20396;-74
2021/10/21 09:09:46;;;;;;;8.32;1.00;;;11.20;99.90;;;;;;5118076;27;20039;-75
2021/10/21 09:12:15;;;;;;;9.85;1.35;;;10.80;99.90;;;;;;5108116;27;20506;-75
2021/10/21 09:15:02;;;;;;;8.45;0.60;;;10.50;99.90;;;;;;5118324;27;20034;-75
2021/10/21 09:17:29;;;;;;;13.85;0.80;;;10.30;99.90;;;;;;5119192;27;20042;-76
2021/10/21 09:19:57;;;;;;;5.57;0.82;;;10.20;99.90;;;;;;5107970;27;20038;-75
2021/10/21 09:22:25;;;;;;;5.38;0.90;;;10.10;99.90;;;;;;5107218;27;20047;-75
2021/10/21 09:24:54;;;;;;;9.52;0.88;;;10.10;99.90;;;;;;5088641;27;20043;-75
2021/10/21 09:27:26;;;;;;;14.23;1.58;;;10.20;99.90;;;;;;5106872;27;20451;-76
2021/10/21 09:29:55;;;;;;;7.50;0.73;;;10.20;99.90;;;;;;5117187;27;20035;-75
2021/10/21 09:32:41;;;;;;;7.07;0.60;;;10.20;99.90;;;;;;5106981;27;20046;-76
2021/10/21 09:35:08;;;;;;;7.35;0.88;;;10.30;99.90;;;;;;5090610;27;20031;-75
2021/10/21 09:37:45;;;;;;;6.68;1.02;;;10.30;99.90;;;;;;5086217;27;20040;-75
2021/10/21 09:40:12;;;;;;;7.70;0.80;;;10.30;99.90;;;;;;5086636;27;20403;-75
2021/10/21 09:42:44;;;;;;;6.97;0.85;;;10.30;99.90;;;;;;5115063;27;20054;-77
2021/10/21 09:45:11;;;;;;;11.40;1.65;;;10.30;99.90;;;;;;5081015;27;20039;-77
2021/10/21 09:47:41;;;;;;;11.13;1.17;;;10.30;99.90;;;;;;5071445;27;20032;-76
2021/10/21 09:50:42;;;;;;;6.22;0.70;;;10.40;99.90;;;;;;5113954;27;20031;-75
2021/10/21 09:53:22;;;;;;;9.05;1.27;;;10.40;99.90;;;;;;5100611;27;20028;-76
2021/10/21 09:56:08;;;;;;;9.75;1.05;;;10.40;99.90;;;;;;5112663;27;20036;-76
2021/10/21 09:58:39;;;;;;;13.90;1.15;;;10.50;99.90;;;;;;5119773;27;20035;-75
2021/10/21 10:01:10;;;;;;;10.93;0.60;;;10.50;99.90;;;;;;5104820;27;20031;-75
2021/10/21 10:03:42;;;;;;;12.27;0.93;;;10.50;99.90;;;;;;5120118;27;20043;-75
2021/10/21 10:06:09;;;;;;;9.25;0.82;;;10.50;99.90;;;;;;5086370;27;20699;-75
2021/10/21 10:08:36;;;;;;;7.63;0.80;;;10.50;99.90;;;;;;5116971;27;20515;-76
2021/10/21 10:11:08;;;;;;;9.98;0.90;;;10.50;99.90;;;;;;5072947;27;20515;-76
2021/10/21 10:13:35;;;;;;;10.93;1.00;;;10.60;99.90;;;;;;5102363;27;20039;-76
2021/10/21 10:16:01;;;;;;;6.60;0.80;;;10.70;99.90;;;;;;5101987;27;20035;-78
2021/10/21 10:18:30;;;;;;;13.40;0.88;;;10.70;99.90;;;;;;5117807;27;20039;-75
2021/10/21 10:21:24;;;;;;;4.25;0.60;;;10.80;99.90;;;;;;5113981;27;20038;-79
2021/10/21 10:23:54;;;;;;;7.18;0.63;;;11.00;99.90;;;;;;5086610;28;20381;-80
2021/10/21 10:26:49;;;;;;;7.80;0.90;;;11.20;99.90;;;;;;5090867;27;20034;-80
2021/10/21 10:29:30;;;;;;;13.48;1.00;;;11.50;99.90;;;;;;5105609;28;20039;-78
2021/10/21 10:32:01;;;;;;;9.70;1.17;;;11.60;99.90;;;;;;5096089;27;20046;-77
2021/10/21 10:34:36;;;;;;;8.23;1.25;;;11.70;99.90;;;;;;5119578;27;20376;-77
2021/10/21 10:37:19;;;;;;;9.70;0.82;;;11.80;99.90;;;;;;5070557;27;20038;-77
2021/10/21 10:39:56;;;;;;;7.90;0.70;;;11.80;99.90;;;;;;5115534;27;20395;-76
2021/10/21 10:42:31;;;;;;;6.43;0.60;;;12.00;99.90;;;;;;5087766;27;20035;-77
2021/10/21 10:44:58;;;;;;;10.60;1.00;;;12.30;99.90;;;;;;5114455;27;20058;-76
2021/10/21 10:47:50;;;;;;;11.02;0.82;;;12.50;99.90;;;;;;5115652;27;20496;-76
2021/10/21 10:50:42;;;;;;;7.60;1.00;;;12.50;99.90;;;;;;5103707;27;20050;-77
2021/10/21 10:53:10;;;;;;;9.85;0.60;;;12.40;99.90;;;;;;5079338;28;20043;-78
2021/10/21 10:55:49;;;;;;;10.02;0.82;;;12.30;99.90;;;;;;5105798;28;20031;-83
2021/10/21 10:58:26;;;;;;;7.45;0.77;;;12.20;99.90;;;;;;5056043;27;20047;-80
2021/10/21 11:00:55;;;;;;;6.97;0.80;;;12.00;99.90;;;;;;5104503;27;20058;-78
2021/10/21 11:03:31;;;;;;;7.63;0.55;;;12.00;99.90;;;;;;5105794;27;20050;-78
2021/10/21 11:06:09;;;;;;;6.82;0.80;;;11.80;99.90;;;;;;5107621;27;20051;-79
2021/10/21 11:09:02;;;;;;;12.38;0.80;;;11.70;99.90;;;;;;5087514;27;20051;-78
2021/10/21 11:11:50;;;;;;;10.63;1.10;;;11.60;99.90;;;;;;5102851;27;20027;-77
2021/10/21 11:14:21;;;;;;;8.18;0.70;;;11.60;99.90;;;;;;5099508;27;20035;-76
2021/10/21 11:16:49;;;;;;;13.60;1.98;;;11.60;99.90;;;;;;5120555;27;20026;-78
2021/10/21 11:19:49;;;;;;;8.80;1.83;;;11.60;99.90;;;;;;5112367;27;20043;-78
2021/10/21 11:22:21;;;;;;;10.98;1.45;;;11.70;99.90;;;;;;5112460;27;20038;-78
2021/10/21 11:24:58;;;;;;;10.63;1.75;;;11.70;99.90;;;;;;5089950;27;20050;-78
2021/10/21 11:27:42;;;;;;;9.77;0.98;;;11.60;99.90;;;;;;5123642;27;20032;-77
2021/10/21 11:30:14;;;;;;;7.90;0.80;;;11.50;99.90;;;;;;5115852;27;20724;-78
2021/10/21 11:32:43;;;;;;;6.30;0.68;;;11.40;99.90;;;;;;5088580;27;20050;-77
2021/10/21 11:35:22;;;;;;;6.90;0.50;;;11.50;99.90;;;;;;5108049;27;20019;-78
2021/10/21 11:38:00;;;;;;;8.35;0.60;;;11.50;99.90;;;;;;5110561;27;20038;-78
2021/10/21 11:40:34;;;;;;;8.30;0.93;;;11.40;99.90;;;;;;5123442;27;20030;-78
2021/10/21 11:43:03;;;;;;;13.05;0.80;;;11.40;99.90;;;;;;5122856;27;20032;-78
2021/10/21 11:45:41;;;;;;;6.95;0.82;;;11.30;99.90;;;;;;5123301;27;21539;-78
2021/10/21 11:48:11;;;;;;;9.57;0.70;;;11.30;99.90;;;;;;5115260;27;20674;-78
2021/10/21 11:50:45;;;;;;;3.88;0.50;;;11.50;99.90;;;;;;5128639;27;20075;-77
2021/10/21 11:53:14;;;;;;;7.47;0.60;;;11.50;99.90;;;;;;5111083;27;20031;-78
2021/10/21 11:55:42;;;;;;;1.02;0.10;;;11.50;99.90;;;;;;5110329;27;20031;-76
2021/10/21 11:58:17;;;;;;;8.10;0.30;;;11.30;99.90;;;;;;5113315;27;20495;-77
2021/10/21 12:00:55;;;;;;;3.03;0.20;;;10.60;99.90;;;;;;5122513;27;20036;-76
2021/10/21 12:03:42;;;;;;;3.47;0.20;;;10.10;99.90;;;;;;5125527;27;20484;-76
2021/10/21 12:06:14;;;;;;;5.38;0.45;;;9.70;99.90;;;;;;5092360;27;20094;-76
2021/10/21 12:08:49;;;;;;;2.35;0.20;;;9.50;99.90;;;;;;5132899;27;20120;-77
2021/10/21 12:11:19;;;;;;;2.00;0.40;;;9.50;99.90;;;;;;5111270;27;20031;-77
2021/10/21 12:13:45;;;;;;;3.78;0.40;;;9.50;99.90;;;;;;5107629;27;20468;-75
2021/10/21 12:16:15;;;;;;;1.98;0.30;;;9.50;99.90;;;;;;5091337;27;20031;-76
2021/10/21 12:18:41;;;;;;;3.45;0.30;;;9.50;99.90;;;;;;5107808;27;20054;-78
2021/10/21 12:21:08;;;;;;;2.97;0.50;;;9.50;99.90;;;;;;5126024;27;20032;-77
2021/10/21 12:23:45;;;;;;;5.72;0.50;;;9.50;99.90;;;;;;5074949;27;20035;-76
2021/10/21 12:26:31;;;;;;;2.72;0.38;;;9.50;99.90;;;;;;5121129;27;20035;-76
2021/10/21 12:29:09;;;;;;;3.53;0.45;;;9.60;99.90;;;;;;5124762;27;20043;-76
2021/10/21 12:31:38;;;;;;;2.50;0.20;;;9.50;99.90;;;;;;5126399;27;20031;-76
2021/10/21 12:34:11;;;;;;;2.17;0.20;;;9.40;99.90;;;;;;5121668;27;20353;-77
2021/10/21 12:36:44;;;;;;;2.72;0.43;;;9.40;99.90;;;;;;5075455;27;20038;-76
2021/10/21 12:39:13;;;;;;;4.35;0.30;;;9.40;99.90;;;;;;5120971;27;20047;-77
2021/10/21 12:41:50;;;;;;;2.50;0.20;;;9.40;99.90;;;;;;5110768;27;20031;-76
2021/10/21 12:44:19;;;;;;;2.65;0.50;;;9.50;99.90;;;;;;5109316;27;20031;-76
2021/10/21 12:46:46;;;;;;;4.18;0.25;;;9.70;99.90;;;;;;5126571;27;20043;-78
2021/10/21 12:49:14;;;;;;;3.08;0.10;;;9.90;99.90;;;;;;5113352;27;20035;-76
2021/10/21 12:51:42;;;;;;;3.40;0.52;;;10.00;99.90;;;;;;5118589;27;20032;-75
2021/10/21 12:54:21;;;;;;;3.20;0.60;;;10.10;99.90;;;;;;5089591;27;20034;-77
2021/10/21 12:56:56;;;;;;;6.50;0.60;;;10.20;99.90;;;;;;5092760;27;20396;-76
2021/10/21 12:59:23;;;;;;;3.65;0.40;;;10.20;99.90;;;;;;5107624;27;20046;-76